createdAt,value
2022-08-07T00:01:12.516Z,16.25
2022-08-07T00:03:55.182Z,16.04
2022-08-07T00:06:32.921Z,15.97
2022-08-07T00:09:16.465Z,15.90
2022-08-07T00:11:54.242Z,15.68
2022-08-07T00:14:25.402Z,15.78
2022-08-07T00:16:57.261Z,15.78
2022-08-07T00:19:26.147Z,15.67
2022-08-07T00:22:02.310Z,15.57
2022-08-07T00:24:31.551Z,15.49
2022-08-07T00:27:07.163Z,15.58
2022-08-07T00:29:37.067Z,15.58
2022-08-07T00:32:05.815Z,15.57
2022-08-07T00:34:35.590Z,15.41
2022-08-07T00:37:05.010Z,15.56
2022-08-07T00:39:32.522Z,15.59
2022-08-07T00:42:01.855Z,15.61
2022-08-07T00:44:33.542Z,15.43
2022-08-07T00:47:06.578Z,15.46
2022-08-07T00:50:19.536Z,15.48
2022-08-07T00:52:29.491Z,15.43
2022-08-07T00:55:00.051Z,15.36
2022-08-07T00:57:34.127Z,15.18
2022-08-07T01:00:05.478Z,15.31
2022-08-07T01:02:32.643Z,15.29
2022-08-07T01:05:00.112Z,15.25
2022-08-07T01:07:29.539Z,15.26
2022-08-07T01:10:04.292Z,15.21
2022-08-07T01:12:34.518Z,15.24
2022-08-07T01:15:04.025Z,15.06
2022-08-07T01:17:32.743Z,14.94
2022-08-07T01:20:08.380Z,14.88
2022-08-07T01:22:37.844Z,14.74
2022-08-07T01:25:53.528Z,14.62
2022-08-07T01:28:01.380Z,14.70
2022-08-07T01:30:29.964Z,14.80
2022-08-07T01:32:56.837Z,14.75
2022-08-07T01:35:25.329Z,14.67
2022-08-07T01:38:12.293Z,14.60
2022-08-07T01:40:40.296Z,14.48
2022-08-07T01:43:07.695Z,14.41
2022-08-07T01:45:37.309Z,14.39
2022-08-07T01:48:29.325Z,14.39
2022-08-07T01:51:24.258Z,14.40
2022-08-07T01:54:08.569Z,14.40
2022-08-07T01:56:53.216Z,14.40
2022-08-07T01:59:33.747Z,14.36
2022-08-07T02:02:10.296Z,14.27
2022-08-07T02:04:56.351Z,14.27
2022-08-07T02:07:44.846Z,14.26
2022-08-07T02:10:17.454Z,14.14
2022-08-07T02:12:50.295Z,14.09
2022-08-07T02:15:23.131Z,14.17
2022-08-07T02:17:54.958Z,14.10
2022-08-07T02:20:24.578Z,14.13
2022-08-07T02:23:00.107Z,14.12
2022-08-07T02:26:10.465Z,14.12
2022-08-07T02:28:25.414Z,14.09
2022-08-07T02:30:55.050Z,14.00
2022-08-07T02:33:33.025Z,13.96
2022-08-07T02:36:28.988Z,13.65
2022-08-07T02:39:16.187Z,13.82
2022-08-07T02:41:47.323Z,13.75
2022-08-07T02:44:18.386Z,13.80
2022-08-07T02:46:52.747Z,13.65
2022-08-07T02:49:28.611Z,13.73
2022-08-07T02:51:58.998Z,13.63
2022-08-07T02:54:31.146Z,13.62
2022-08-07T02:57:01.639Z,13.67
2022-08-07T02:59:29.928Z,13.61
2022-08-07T03:02:02.275Z,13.63
2022-08-07T03:04:30.466Z,13.59
2022-08-07T03:07:03.371Z,13.62
2022-08-07T03:09:42.405Z,13.62
2022-08-07T03:12:21.629Z,13.64
2022-08-07T03:14:52.566Z,13.58
2022-08-07T03:17:20.236Z,13.53
2022-08-07T03:19:54.492Z,13.50
2022-08-07T03:22:24.179Z,13.48
2022-08-07T03:24:57.351Z,13.32
2022-08-07T03:27:30.432Z,13.24
2022-08-07T03:29:58.946Z,13.26
2022-08-07T03:32:36.908Z,13.26
2022-08-07T03:35:17.693Z,13.21
2022-08-07T03:37:53.893Z,13.22
2022-08-07T03:40:23.620Z,13.30
2022-08-07T03:42:57.758Z,13.22
2022-08-07T03:45:30.862Z,13.18
2022-08-07T03:47:59.311Z,13.17
2022-08-07T03:50:28.717Z,13.12
2022-08-07T03:52:59.129Z,13.05
2022-08-07T03:55:46.081Z,12.97
2022-08-07T03:59:05.128Z,12.94
2022-08-07T04:01:04.759Z,12.90
2022-08-07T04:03:49.524Z,12.76
2022-08-07T04:06:37.516Z,12.69
2022-08-07T04:09:05.986Z,12.77
2022-08-07T04:12:21.335Z,12.67
2022-08-07T04:14:38.402Z,12.71
2022-08-07T04:18:11.165Z,12.46
2022-08-07T04:19:55.737Z,12.52
2022-08-07T04:22:29.172Z,12.46
2022-08-07T04:25:01.488Z,12.46
2022-08-07T04:27:28.745Z,12.43
2022-08-07T04:30:04.885Z,12.45
2022-08-07T04:32:37.879Z,12.55
2022-08-07T04:35:07.334Z,12.57
2022-08-07T04:38:01.051Z,12.68
2022-08-07T04:40:30.109Z,12.72
2022-08-07T04:43:01.928Z,12.79
2022-08-07T04:45:57.697Z,12.88
2022-08-07T04:48:32.595Z,13.62
2022-08-07T04:51:03.556Z,14.89
2022-08-07T04:54:05.722Z,15.92
2022-08-07T04:58:23.667Z,16.58
2022-08-07T05:00:17.303Z,16.92
2022-08-07T05:03:38.852Z,16.72
2022-08-07T05:06:28.093Z,16.27
2022-08-07T05:09:43.001Z,15.69
2022-08-07T05:12:15.550Z,15.48
2022-08-07T05:15:04.350Z,16.30
2022-08-07T05:17:52.045Z,17.62
2022-08-07T05:20:27.077Z,18.75
2022-08-07T05:22:58.172Z,19.45
2022-08-07T05:26:10.688Z,19.81
2022-08-07T05:28:22.638Z,19.79
2022-08-07T05:30:52.137Z,19.74
2022-08-07T05:33:20.821Z,20.02
2022-08-07T05:35:50.748Z,20.07
2022-08-07T05:38:59.509Z,20.41
2022-08-07T05:41:14.318Z,20.68
2022-08-07T05:44:01.567Z,20.76
2022-08-07T05:46:37.657Z,21.03
2022-08-07T05:49:11.885Z,21.33
2022-08-07T05:51:46.273Z,21.28
2022-08-07T05:54:30.622Z,21.57
2022-08-07T05:56:59.121Z,21.32
2022-08-07T05:59:27.443Z,21.55
2022-08-07T06:01:57.167Z,21.83
2022-08-07T06:04:26.328Z,22.07
2022-08-07T06:07:05.850Z,22.11
2022-08-07T06:10:03.812Z,22.23
2022-08-07T06:12:21.020Z,21.98
2022-08-07T06:14:55.155Z,22.21
2022-08-07T06:17:32.157Z,22.45
2022-08-07T06:20:05.624Z,22.29
2022-08-07T06:22:38.824Z,22.28
2022-08-07T06:25:10.255Z,22.98
2022-08-07T06:27:44.158Z,22.85
2022-08-07T06:30:36.115Z,23.13
2022-08-07T06:33:09.930Z,23.11
2022-08-07T06:35:47.708Z,23.32
2022-08-07T06:38:20.361Z,23.31
2022-08-07T06:40:54.319Z,23.22
2022-08-07T06:43:24.585Z,23.01
2022-08-07T06:45:51.682Z,23.32
2022-08-07T06:48:25.004Z,23.57
2022-08-07T06:50:54.908Z,23.67
2022-08-07T06:54:11.631Z,23.76
2022-08-07T06:56:15.352Z,23.81
2022-08-07T07:00:14.349Z,23.79
2022-08-07T07:01:43.887Z,24.37
2022-08-07T07:04:28.091Z,24.56
2022-08-07T07:07:01.949Z,24.29
2022-08-07T07:09:31.402Z,24.46
2022-08-07T07:12:14.789Z,24.30
2022-08-07T07:14:58.200Z,24.45
2022-08-07T07:17:55.162Z,24.33
2022-08-07T07:20:32.140Z,24.52
2022-08-07T07:24:08.642Z,24.82
2022-08-07T07:26:35.418Z,25.07
2022-08-07T07:29:56.147Z,25.17
2022-08-07T07:31:56.730Z,25.02
2022-08-07T07:34:30.988Z,25.10
2022-08-07T07:37:05.469Z,24.87
2022-08-07T07:39:54.905Z,25.43
2022-08-07T07:42:33.033Z,25.56
2022-08-07T07:45:04.065Z,25.46
2022-08-07T07:47:51.993Z,25.35
2022-08-07T07:50:36.411Z,25.32
2022-08-07T07:53:13.692Z,25.41
2022-08-07T07:55:57.395Z,25.12
2022-08-07T07:58:37.099Z,25.29
2022-08-07T08:02:02.708Z,25.31
2022-08-07T08:04:09.550Z,25.42
2022-08-07T08:06:39.598Z,25.73
2022-08-07T08:09:09.729Z,25.42
2022-08-07T08:12:00.060Z,25.52
2022-08-07T08:14:34.455Z,25.84
2022-08-07T08:17:14.208Z,26.09
2022-08-07T08:20:19.750Z,26.09
2022-08-07T08:23:02.392Z,25.95
2022-08-07T08:25:52.335Z,25.86
2022-08-07T08:28:38.589Z,25.97
2022-08-07T08:31:15.716Z,25.92
2022-08-07T08:33:55.833Z,25.86
2022-08-07T08:36:29.622Z,25.61
2022-08-07T08:39:01.601Z,25.98
2022-08-07T08:42:13.831Z,26.39
2022-08-07T08:44:48.510Z,26.35
2022-08-07T08:47:47.404Z,26.15
2022-08-07T08:50:35.387Z,26.21
2022-08-07T08:53:14.612Z,26.13
2022-08-07T08:56:01.728Z,26.26
2022-08-07T08:58:50.651Z,26.25
2022-08-07T09:01:29.966Z,26.44
2022-08-07T09:04:13.569Z,26.32
2022-08-07T09:06:55.818Z,26.11
2022-08-07T09:09:57.180Z,26.18
2022-08-07T09:12:56.023Z,26.09
2022-08-07T09:16:22.154Z,26.12
2022-08-07T09:18:36.760Z,25.87
2022-08-07T09:21:13.855Z,25.99
2022-08-07T09:24:31.664Z,25.91
2022-08-07T09:27:31.011Z,26.28
2022-08-07T09:30:10.435Z,26.42
2022-08-07T09:33:05.400Z,26.58
2022-08-07T09:36:04.506Z,26.09
2022-08-07T09:38:50.251Z,26.06
2022-08-07T09:41:43.211Z,26.98
2022-08-07T09:44:32.959Z,27.00
2022-08-07T09:47:59.425Z,26.87
2022-08-07T09:50:36.504Z,26.34
2022-08-07T09:53:10.010Z,25.49
2022-08-07T09:56:37.147Z,25.88
2022-08-07T09:59:46.434Z,26.46
2022-08-07T10:02:45.136Z,26.17
2022-08-07T10:05:59.200Z,25.98
2022-08-07T10:09:05.708Z,26.25
2022-08-07T10:12:02.144Z,26.37
2022-08-07T10:15:00.860Z,25.76
2022-08-07T10:18:01.012Z,25.86
2022-08-07T10:20:32.771Z,26.53
2022-08-07T10:23:08.444Z,26.57
2022-08-07T10:25:51.964Z,26.70
2022-08-07T10:28:49.348Z,27.28
2022-08-07T10:31:19.075Z,27.18
2022-08-07T10:34:32.237Z,26.90
2022-08-07T10:37:26.371Z,26.96
2022-08-07T10:40:22.438Z,26.72
2022-08-07T10:43:21.266Z,27.18
2022-08-07T10:46:09.362Z,27.28
2022-08-07T10:48:48.779Z,26.81
2022-08-07T10:51:39.418Z,26.74
2022-08-07T10:54:53.416Z,26.78
2022-08-07T10:57:51.567Z,26.71
2022-08-07T11:00:39.566Z,27.11
2022-08-07T11:03:14.829Z,26.85
2022-08-07T11:06:04.866Z,27.10
2022-08-07T11:08:52.922Z,26.88
2022-08-07T11:11:37.548Z,27.09
2022-08-07T11:14:45.487Z,26.80
2022-08-07T11:17:11.547Z,26.77
2022-08-07T11:19:46.835Z,26.96
2022-08-07T11:22:37.205Z,26.96
2022-08-07T11:25:50.113Z,27.29
2022-08-07T11:28:26.894Z,27.32
2022-08-07T11:30:59.326Z,27.35
2022-08-07T11:33:58.399Z,27.14
2022-08-07T11:36:41.181Z,27.23
2022-08-07T11:39:20.493Z,27.28
2022-08-07T11:42:07.388Z,27.18
2022-08-07T11:45:09.831Z,27.03
2022-08-07T11:47:56.292Z,27.23
2022-08-07T11:50:57.238Z,27.37
2022-08-07T11:54:00.559Z,26.91
2022-08-07T11:57:12.788Z,26.67
2022-08-07T12:00:10.660Z,26.87
2022-08-07T12:03:07.998Z,26.96
2022-08-07T12:06:00.459Z,27.06
2022-08-07T12:08:58.707Z,27.34
2022-08-07T12:11:43.407Z,27.02
2022-08-07T12:14:31.745Z,27.04
2022-08-07T12:17:04.262Z,27.08
2022-08-07T12:20:02.718Z,27.22
2022-08-07T12:22:58.458Z,27.25
2022-08-07T12:26:03.066Z,26.99
2022-08-07T12:28:56.632Z,27.00
2022-08-07T12:31:53.395Z,26.85
2022-08-07T12:34:30.313Z,27.08
2022-08-07T12:36:59.406Z,27.07
2022-08-07T12:39:41.932Z,27.04
2022-08-07T12:42:13.285Z,27.07
2022-08-07T12:44:45.655Z,27.18
2022-08-07T12:47:31.595Z,27.06
2022-08-07T12:50:05.226Z,26.96
2022-08-07T12:53:05.273Z,26.84
2022-08-07T12:56:02.857Z,27.37
2022-08-07T12:58:39.339Z,27.14
2022-08-07T13:01:19.552Z,26.99
2022-08-07T13:04:31.569Z,27.18
2022-08-07T13:08:14.391Z,27.44
2022-08-07T13:10:39.254Z,27.57
2022-08-07T13:13:48.391Z,26.98
2022-08-07T13:16:10.724Z,27.35
2022-08-07T13:18:51.524Z,27.74
2022-08-07T13:21:51.141Z,27.95
2022-08-07T13:24:54.385Z,27.68
2022-08-07T13:28:05.802Z,27.51
2022-08-07T13:30:19.439Z,27.48
2022-08-07T13:34:14.400Z,27.87
2022-08-07T13:36:05.342Z,27.96
2022-08-07T13:38:47.615Z,27.83
2022-08-07T13:41:23.170Z,28.08
2022-08-07T13:43:56.487Z,28.00
2022-08-07T13:46:33.163Z,27.63
2022-08-07T13:49:04.118Z,27.92
2022-08-07T13:52:04.741Z,27.74
2022-08-07T13:54:31.088Z,28.04
2022-08-07T13:57:03.873Z,28.08
2022-08-07T13:59:35.121Z,28.22
2022-08-07T14:02:10.480Z,28.04
2022-08-07T14:04:50.335Z,27.78
2022-08-07T14:07:24.559Z,27.61
2022-08-07T14:10:12.645Z,27.71
2022-08-07T14:13:00.635Z,27.60
2022-08-07T14:15:42.603Z,27.87
2022-08-07T14:18:29.694Z,27.63
2022-08-07T14:22:00.529Z,27.74
2022-08-07T14:24:05.023Z,27.83
2022-08-07T14:26:40.925Z,27.81
2022-08-07T14:30:07.463Z,27.94
2022-08-07T14:32:12.399Z,28.01
2022-08-07T14:34:46.079Z,27.87
2022-08-07T14:37:16.763Z,27.76
2022-08-07T14:42:35.651Z,27.97
2022-08-07T14:45:25.726Z,28.33
2022-08-07T14:48:19.932Z,28.34
2022-08-07T14:51:00.143Z,28.13
2022-08-07T14:54:08.877Z,27.99
2022-08-07T14:56:29.755Z,27.78
2022-08-07T14:59:02.135Z,27.46
2022-08-07T15:01:42.480Z,27.63
2022-08-07T15:04:18.127Z,27.77
2022-08-07T15:06:47.882Z,27.54
2022-08-07T15:09:58.156Z,27.19
2022-08-07T15:12:26.355Z,27.58
2022-08-07T15:15:21.068Z,27.58
2022-08-07T15:18:02.719Z,27.81
2022-08-07T15:20:54.661Z,28.02
2022-08-07T15:26:21.295Z,27.86
2022-08-07T15:28:59.671Z,27.68
2022-08-07T15:32:01.903Z,27.63
2022-08-07T15:34:50.770Z,27.46
2022-08-07T15:38:18.369Z,27.74
2022-08-07T15:40:20.933Z,27.77
2022-08-07T15:43:10.496Z,27.57
2022-08-07T15:46:03.531Z,27.50
2022-08-07T15:48:55.256Z,27.81
2022-08-07T15:54:18.143Z,27.58
2022-08-07T15:56:48.267Z,27.48
2022-08-07T15:59:17.412Z,27.49
2022-08-07T16:02:02.497Z,27.38
2022-08-07T16:04:32.047Z,27.50
2022-08-07T16:07:04.686Z,27.40
2022-08-07T16:09:51.955Z,27.14
2022-08-07T16:13:01.193Z,27.33
2022-08-07T16:15:57.603Z,27.28
2022-08-07T16:18:49.370Z,27.26
2022-08-07T16:22:04.060Z,26.92
2022-08-07T16:24:52.526Z,27.06
2022-08-07T16:27:40.619Z,26.87
2022-08-07T16:30:30.171Z,26.88
2022-08-07T16:34:01.893Z,27.04
2022-08-07T16:36:20.328Z,26.93
2022-08-07T16:39:02.493Z,26.81
2022-08-07T16:41:56.807Z,27.10
2022-08-07T16:45:24.615Z,27.15
2022-08-07T16:47:51.229Z,26.85
2022-08-07T16:50:37.005Z,26.98
2022-08-07T16:53:57.276Z,26.81
2022-08-07T16:56:17.511Z,26.42
2022-08-07T16:59:10.229Z,26.66
2022-08-07T17:01:59.043Z,26.29
2022-08-07T17:04:36.972Z,26.57
2022-08-07T17:07:51.684Z,26.44
2022-08-07T17:10:54.553Z,26.63
2022-08-07T17:13:41.252Z,26.57
2022-08-07T17:16:43.716Z,26.43
2022-08-07T17:20:01.896Z,26.49
2022-08-07T17:22:36.715Z,25.94
2022-08-07T17:25:19.258Z,25.97
2022-08-07T17:28:13.719Z,25.61
2022-08-07T17:31:00.352Z,25.99
2022-08-07T17:34:18.029Z,26.04
2022-08-07T17:36:49.225Z,25.82
2022-08-07T17:39:58.908Z,25.66
2022-08-07T17:42:58.244Z,25.60
2022-08-07T17:45:50.985Z,25.40
2022-08-07T17:48:30.859Z,25.56
2022-08-07T17:51:08.430Z,25.64
2022-08-07T17:54:00.711Z,25.61
2022-08-07T17:56:34.828Z,25.52
2022-08-07T17:59:25.518Z,25.58
2022-08-07T18:02:13.004Z,25.50
2022-08-07T18:05:20.650Z,25.38
2022-08-07T18:08:00.505Z,25.29
2022-08-07T18:12:06.612Z,25.13
2022-08-07T18:13:40.858Z,25.04
2022-08-07T18:16:30.867Z,24.89
2022-08-07T18:21:11.697Z,24.75
2022-08-07T18:22:05.382Z,24.81
2022-08-07T18:24:51.049Z,24.80
2022-08-07T18:27:39.111Z,24.92
2022-08-07T18:30:32.371Z,24.61
2022-08-07T18:33:15.593Z,24.51
2022-08-07T18:36:14.302Z,24.51
2022-08-07T18:40:05.587Z,24.45
2022-08-07T18:42:20.183Z,24.35
2022-08-07T18:45:43.006Z,24.32
2022-08-07T18:48:01.572Z,24.35
2022-08-07T18:50:39.670Z,24.19
2022-08-07T18:53:36.705Z,24.11
2022-08-07T18:56:33.860Z,23.80
2022-08-07T18:59:47.413Z,23.89
2022-08-07T19:02:34.259Z,23.78
2022-08-07T19:05:16.243Z,23.62
2022-08-07T19:07:57.071Z,23.50
2022-08-07T19:10:49.604Z,23.32
2022-08-07T19:13:58.736Z,23.06
2022-08-07T19:17:00.288Z,23.05
2022-08-07T19:19:55.782Z,22.87
2022-08-07T19:22:36.208Z,22.85
2022-08-07T19:25:05.439Z,22.75
2022-08-07T19:28:57.738Z,22.59
2022-08-07T19:31:00.302Z,22.53
2022-08-07T19:33:15.697Z,22.38
2022-08-07T19:35:53.886Z,22.29
2022-08-07T19:38:21.760Z,22.28
2022-08-07T19:40:51.899Z,22.20
2022-08-07T19:43:43.749Z,22.12
2022-08-07T19:46:11.964Z,22.05
2022-08-07T19:48:44.046Z,22.05
2022-08-07T19:51:20.150Z,22.00
2022-08-07T19:54:34.869Z,21.99
2022-08-07T19:57:56.794Z,21.90
2022-08-07T19:59:40.526Z,21.80
2022-08-07T20:02:15.079Z,21.78
2022-08-07T20:04:50.281Z,21.76
2022-08-07T20:07:47.089Z,21.63
2022-08-07T20:10:36.577Z,21.51
2022-08-07T20:13:06.037Z,21.35
2022-08-07T20:15:36.879Z,21.30
2022-08-07T20:18:06.478Z,21.23
2022-08-07T20:20:45.662Z,21.21
2022-08-07T20:23:40.615Z,21.24
2022-08-07T20:26:09.878Z,21.16
2022-08-07T20:28:39.782Z,20.97
2022-08-07T20:31:21.398Z,20.82
2022-08-07T20:33:57.342Z,20.68
2022-08-07T20:36:26.736Z,20.48
2022-08-07T20:39:00.471Z,20.51
2022-08-07T20:41:40.819Z,20.42
2022-08-07T20:44:10.285Z,20.38
2022-08-07T20:46:44.118Z,20.40
2022-08-07T20:50:01.030Z,20.41
2022-08-07T20:52:02.319Z,20.30
2022-08-07T20:54:33.453Z,20.20
2022-08-07T20:57:03.734Z,20.17
2022-08-07T21:00:07.756Z,20.12
2022-08-07T21:02:54.088Z,20.09
2022-08-07T21:05:42.664Z,19.89
2022-08-07T21:08:16.528Z,19.77
2022-08-07T21:10:49.810Z,19.95
2022-08-07T21:13:24.726Z,19.72
2022-08-07T21:16:09.226Z,19.24
2022-08-07T21:18:41.262Z,19.38
2022-08-07T21:21:16.548Z,19.39
2022-08-07T21:24:01.887Z,19.17
2022-08-07T21:26:51.898Z,19.07
2022-08-07T21:29:30.426Z,19.10
2022-08-07T21:32:43.892Z,19.02
2022-08-07T21:36:04.215Z,19.07
2022-08-07T21:38:14.797Z,18.83
2022-08-07T21:41:03.325Z,18.89
2022-08-07T21:43:56.870Z,18.92
2022-08-07T21:46:34.003Z,18.80
2022-08-07T21:49:26.927Z,18.57
2022-08-07T21:52:09.070Z,18.60
2022-08-07T21:54:52.842Z,18.59
2022-08-07T21:57:44.505Z,18.48
2022-08-07T22:00:25.138Z,18.35
2022-08-07T22:02:59.106Z,18.53
2022-08-07T22:05:45.914Z,18.43
2022-08-07T22:08:19.904Z,18.40
2022-08-07T22:10:58.272Z,18.02
2022-08-07T22:13:52.122Z,18.17
2022-08-07T22:16:44.259Z,18.05
2022-08-07T22:19:29.881Z,18.00
2022-08-07T22:22:29.106Z,17.75
2022-08-07T22:25:07.487Z,17.76
2022-08-07T22:28:07.390Z,17.74
2022-08-07T22:30:40.055Z,17.45
2022-08-07T22:33:11.181Z,17.25
2022-08-07T22:35:57.861Z,17.48
2022-08-07T22:38:33.629Z,17.54
2022-08-07T22:41:02.902Z,17.54
2022-08-07T22:43:50.335Z,17.43
2022-08-07T22:47:02.046Z,17.38
2022-08-07T22:49:37.706Z,17.37
2022-08-07T22:52:11.279Z,17.38
2022-08-07T22:54:41.130Z,17.23
2022-08-07T22:57:34.328Z,17.14
2022-08-07T23:00:13.080Z,17.20
2022-08-07T23:02:41.718Z,17.16
2022-08-07T23:06:07.396Z,16.83
2022-08-07T23:08:45.225Z,16.67
2022-08-07T23:11:51.843Z,16.72
2022-08-07T23:15:05.857Z,16.74
2022-08-07T23:18:17.944Z,16.67
2022-08-07T23:21:00.078Z,16.55
2022-08-07T23:24:04.046Z,16.69
2022-08-07T23:26:55.069Z,16.49
2022-08-07T23:30:38.788Z,16.35
2022-08-07T23:34:21.125Z,16.25
2022-08-07T23:35:49.870Z,16.25
2022-08-07T23:38:36.527Z,16.24
2022-08-07T23:41:47.686Z,16.18
2022-08-07T23:45:02.337Z,16.21
2022-08-07T23:47:46.780Z,15.95
2022-08-07T23:50:27.883Z,16.14
2022-08-07T23:53:19.395Z,16.11
2022-08-07T23:56:04.206Z,15.83
2022-08-07T23:58:54.799Z,15.82
